Flight Track Log - Related Links

Times and Time Zones

All times are in EDT time to prevent confusion due to time zone crossing. See the XOJ552 flight status page for this flight to view local times or setup timezone preferences in your user account.

Time Position Orientation Groundspeed Altitude Reporting Facility
EDT Latitude Longitude Course Direction KTS MPH feet Rate Location/Type
Sun 07:46:11 AM 40.8333 -72.6833 255° West 211 243 1,800  Level New York TRACON
Sun 07:47:05 AM 40.8167 -72.7667 255° West 238 274 3,700 2,842 Climbing New York TRACON
Sun 07:48:05 AM 40.8167 -72.8500 270° West 254 292 7,200 2,150 Climbing New York TRACON
Sun 07:49:05 AM 40.8167 -72.9500 270° West 263 303 8,000 400 Climbing New York TRACON
Sun 07:50:05 AM 40.8167 -73.0500 270° West 266 306 8,000  Level New York TRACON
Sun 07:51:05 AM 40.8000 -73.1500 258° West 264 304 8,000 190 Level New York TRACON
Sun 07:52:11 AM 40.8000 -73.2500 270° West 266 306 8,400 1,500 Climbing New York TRACON
Sun 07:53:17 AM 40.8333 -73.3500 294° West 295 339 11,300 2,700 Climbing New York TRACON
Sun 07:54:11 AM 40.8833 -73.4333 294° West 325 374 13,800 2,778 Climbing New York TRACON
Sun 07:55:05 AM 40.9500 -73.5167 317° Northwest 335 386 16,300 1,600 Climbing New York TRACON
Sun 07:56:11 AM 41.0167 -73.6333 307° West 355 409 17,000 233 Climbing New York TRACON
Sun 07:58:05 AM 41.0414 -73.8825 278° West 403 464 17,000 384 Level New York Center
Sun 07:59:03 AM 41.0603 -74.0319 280° West 384 442 18,100 1,780 Climbing New York Center
Sun 08:00:03 AM 41.0794 -74.1622 281° West 373 429 20,500 2,132 Climbing New York Center
Sun 08:01:04 AM 41.0906 -74.2867 277° West 368 423 22,400 2,083 Climbing New York Center
Sun 08:02:04 AM 41.1050 -74.4225 278° West 373 429 24,700 2,132 Climbing New York Center
Sun 08:03:05 AM 41.1217 -74.5583 279° West 379 436 26,700 2,017 Climbing New York Center
Sun 08:04:03 AM 41.1419 -74.7025 281° West 385 443 28,700 1,881 Climbing New York Center
Sun 08:05:03 AM 41.1997 -74.8411 299° West 406 467 30,400 1,574 Climbing New York Center
Sun 08:06:05 AM 41.2594 -74.9772 300° West 415 478 31,900 1,328 Climbing New York Center
Sun 08:07:05 AM 41.3192 -75.1161 300° West 427 491 33,100 1,322 Climbing New York Center
Sun 08:08:03 AM 41.3764 -75.2525 299° West 432 497 34,500 1,424 Climbing New York Center
Sun 08:09:03 AM 41.4378 -75.3922 300° West 432 497 35,900 1,488 Climbing New York Center
Sun 08:10:04 AM 41.4886 -75.5314 296° West 432 497 37,500 1,525 Climbing New York Center
Sun 08:11:05 AM 41.5322 -75.6869 291° West 418 481 39,000 1,240 Climbing New York Center
Sun 08:12:05 AM 41.5689 -75.8033 293° West 395 455 40,000 800 Climbing New York Center
Sun 08:13:05 AM 41.6069 -75.9367 291° West 395 455 40,600 536 Climbing New York Center
Sun 08:15:04 AM 41.6831 -76.2175 290° West 402 463 41,600 503 Climbing Cleveland Center
Sun 08:16:04 AM 41.7217 -76.3567 290° West 402 463 42,100 400 Climbing Cleveland Center
Sun 08:17:04 AM 41.7619 -76.4933 292° West 402 463 42,400 300 Climbing Cleveland Center
Sun 08:18:04 AM 41.8006 -76.6358 290° West 402 463 42,700 300 Climbing Cleveland Center
Sun 08:19:04 AM 41.8406 -76.7756 291° West 402 463 43,000 150 Climbing Cleveland Center
Sun 08:20:04 AM 41.8786 -76.9211 289° West 407 468 43,000  Level Cleveland Center
Sun 08:21:04 AM 41.9186 -77.0669 290° West 407 468 43,000  Level Cleveland Center
Sun 08:22:04 AM 41.9631 -77.2264 291° West 413 475 43,000  Level Cleveland Center
Sun 08:23:04 AM 42.0028 -77.3725 290° West 418 481 43,000  Level Cleveland Center
Sun 08:24:04 AM 42.0444 -77.5242 290° West 423 487 43,000  Level Cleveland Center
Sun 08:25:04 AM 42.0836 -77.6733 290° West 423 487 43,000  Level Cleveland Center
Sun 08:26:04 AM 42.1208 -77.8228 289° West 423 487 43,000  Level Cleveland Center
Sun 08:27:04 AM 42.1619 -77.9781 290° West 423 487 43,000  Level Cleveland Center
Sun 08:28:04 AM 42.2028 -78.1278 290° West 428 493 43,000  Level Cleveland Center
Sun 08:29:04 AM 42.2433 -78.2833 289° West 428 493 43,000  Level Cleveland Center
Sun 08:30:04 AM 42.2839 -78.4361 290° West 433 498 43,000  Level Cleveland Center
Sun 08:31:04 AM 42.3222 -78.5894 289° West 439 505 43,000  Level Cleveland Center
Sun 08:32:04 AM 42.3600 -78.7428 288° West 432 497 43,000  Level Cleveland Center
Sun 08:33:04 AM 42.4000 -78.8989 289° West 432 497 43,000  Level Cleveland Center
Sun 08:34:04 AM 42.4353 -79.0358 289° West 432 497 43,000  Level Cleveland Center
Sun 08:35:04 AM 42.4769 -79.2067 288° West 438 504 43,000  Level Cleveland Center
Sun 08:36:04 AM 42.5164 -79.3633 289° West 438 504 43,000  Level Cleveland Center
Sun 08:37:04 AM 42.5533 -79.5206 288° West 438 504 43,000  Level Cleveland Center
Sun 08:38:04 AM 42.5964 -79.6778 290° West 438 504 43,000  Level Cleveland Center
Sun 08:39:04 AM 42.6328 -79.8325 288° West 438 504 43,000  Level Cleveland Center
Sun 08:40:04 AM 42.6692 -79.9903 287° West 438 504 43,000  Level Cleveland Center
Sun 08:41:04 AM 42.7075 -80.1508 288° West 438 504 43,000  Level Cleveland Center
Sun 08:42:04 AM 42.7433 -80.3119 287° West 440 506 43,000  Level Cleveland Center
Sun 08:43:04 AM 42.7769 -80.4531 288° West 447 514 43,000  Level Cleveland Center
Sun 08:44:04 AM 42.8144 -80.6144 288° West 441 507 43,000  Level Cleveland Center
Sun 08:45:36 AM 42.8500 -80.8667 281° West 440 506 43,000  Level Toronto Center
Sun 08:46:35 AM 42.8833 -81.0167 287° West 450 518 43,000  Level Toronto Center
Sun 08:47:35 AM 42.9333 -81.1833 292° West 450 518 43,000  Level Toronto Center
Sun 08:48:35 AM 42.9667 -81.3500 285° West 450 518 43,000  Level Toronto Center
Sun 08:49:35 AM 43.0167 -81.5000 295° West 450 518 43,000  Level Toronto Center
Sun 08:50:36 AM 43.0500 -81.6667 285° West 450 518 43,000  Level Toronto Center
Sun 08:51:35 AM 43.0833 -81.8500 284° West 450 518 43,000  Level Toronto Center
Sun 08:52:35 AM 43.1167 -81.9833 289° West 450 518 43,000  Level Toronto Center
Sun 08:53:35 AM 43.1500 -82.1667 284° West 450 518 43,000  Level Toronto Center
Sun 08:54:35 AM 43.1833 -82.3333 285° West 450 518 43,000  Level Toronto Center
Sun 08:55:36 AM 43.2333 -82.5000 292° West 460 529 43,000  Level Toronto Center
Sun 08:56:36 AM 43.2500 -82.6500 279° West 460 529 43,000  Level Toronto Center
Sun 08:57:35 AM 43.3000 -82.8167 292° West 460 529 43,000  Level Toronto Center
Sun 08:58:35 AM 43.3333 -83.0000 284° West 460 529 43,000  Level Toronto Center
Sun 08:59:35 AM 43.3667 -83.1667 285° West 460 529 43,000  Level Toronto Center
Sun 09:00:36 AM 43.4000 -83.3500 284° West 460 529 43,000  Level Toronto Center
Sun 09:01:36 AM 43.4333 -83.5167 285° West 460 529 43,000  Level Toronto Center
Sun 09:02:35 AM 43.4833 -83.6833 293° West 460 529 43,000  Level Toronto Center
Sun 09:03:13 AM 43.4925 -83.7447 282° West 463 533 43,000  Level Minneapolis Center
Sun 09:04:14 AM 43.5347 -83.9492 286° West 464 534 43,000  Level Minneapolis Center
Sun 09:05:15 AM 43.5681 -84.1194 285° West 463 533 43,000  Level Minneapolis Center
Sun 09:06:16 AM 43.6025 -84.2886 286° West 462 532 43,000  Level Minneapolis Center
Sun 09:07:17 AM 43.6361 -84.4603 285° West 464 534 43,000  Level Minneapolis Center
Sun 09:08:18 AM 43.6689 -84.6311 285° West 464 534 43,000  Level Minneapolis Center
Sun 09:09:19 AM 43.7025 -84.8014 285° West 462 532 43,000  Level Minneapolis Center
Sun 09:10:20 AM 43.7414 -85.0061 285° West 462 532 43,000  Level Minneapolis Center
Sun 09:11:21 AM 43.7728 -85.1764 284° West 461 531 43,000  Level Minneapolis Center
Sun 09:12:23 AM 43.8056 -85.3469 285° West 461 531 43,000  Level Minneapolis Center
Sun 09:13:24 AM 43.8372 -85.5186 284° West 463 533 43,000  Level Minneapolis Center
Sun 09:14:25 AM 43.8681 -85.6897 284° West 461 531 43,000  Level Minneapolis Center
Sun 09:15:26 AM 43.9003 -85.8617 285° West 464 534 43,000  Level Minneapolis Center
Sun 09:16:27 AM 43.9322 -86.0358 284° West 468 539 43,000  Level Minneapolis Center
Sun 09:17:29 AM 43.9631 -86.2078 284° West 465 535 43,000  Level Minneapolis Center
Sun 09:18:30 AM 43.9997 -86.4186 284° West 470 541 43,000  Level Minneapolis Center
Sun 09:19:31 AM 44.0294 -86.5944 283° West 472 543 43,000  Level Minneapolis Center
Sun 09:20:44 AM 44.0594 -86.7694 283° West 471 542 43,000  Level Minneapolis Center
Sun 09:21:46 AM 44.0964 -86.9817 284° West 473 544 43,000  Level Minneapolis Center
Sun 09:22:47 AM 44.1264 -87.1578 283° West 471 542 43,000  Level Minneapolis Center
Sun 09:23:48 AM 44.1603 -87.3592 283° West 469 540 43,000  Level Minneapolis Center
Sun 09:24:50 AM 44.1883 -87.5361 283° West 469 540 43,000  Level Minneapolis Center
Sun 09:25:51 AM 44.2183 -87.7128 283° West 470 541 43,000  Level Minneapolis Center
Sun 09:26:53 AM 44.2478 -87.8917 283° West 473 544 43,000  Level Minneapolis Center
Sun 09:27:54 AM 44.2744 -88.0675 282° West 466 536 43,000  Level Minneapolis Center
Sun 09:28:55 AM 44.3022 -88.2436 282° West 467 537 43,000  Level Minneapolis Center
Sun 09:29:57 AM 44.3289 -88.4175 282° West 460 529 43,000  Level Minneapolis Center
Sun 09:30:58 AM 44.3594 -88.6206 282° West 459 528 43,000  Level Minneapolis Center
Sun 09:31:59 AM 44.3864 -88.7978 282° West 465 535 43,000  Level Minneapolis Center
Sun 09:33:01 AM 44.4125 -88.9750 282° West 468 539 43,000  Level Minneapolis Center
Sun 09:34:02 AM 44.4386 -89.1517 282° West 466 536 43,000  Level Minneapolis Center
Sun 09:35:04 AM 44.4650 -89.3281 282° West 464 534 43,000  Level Minneapolis Center
Sun 09:36:05 AM 44.4911 -89.5028 282° West 461 531 43,000  Level Minneapolis Center
Sun 09:37:06 AM 44.5128 -89.6481 282° West 461 531 43,000  Level Minneapolis Center
Sun 09:38:20 AM 44.5500 -89.9114 281° West 460 529 43,000  Level Minneapolis Center
Sun 09:39:34 AM 44.5747 -90.0878 281° West 461 531 43,000  Level Minneapolis Center
Sun 09:40:36 AM 44.6031 -90.2933 281° West 460 529 43,000  Level Minneapolis Center
Sun 09:41:37 AM 44.6269 -90.4711 281° West 463 533 43,000  Level Minneapolis Center
Sun 09:42:39 AM 44.6544 -90.6725 281° West 461 531 43,000  Level Minneapolis Center
Sun 09:43:40 AM 44.6781 -90.8494 281° West 464 534 43,000  Level Minneapolis Center
Sun 09:44:54 AM 44.7017 -91.0256 281° West 461 531 43,000  Level Minneapolis Center
Sun 09:45:56 AM 44.7272 -91.2381 280° West 462 532 43,000  Level Minneapolis Center
Sun 09:46:57 AM 44.7508 -91.4161 281° West 463 533 43,000  Level Minneapolis Center
Sun 09:47:59 AM 44.7736 -91.5919 280° West 462 532 43,000  Level Minneapolis Center
Sun 09:49:00 AM 44.7983 -91.7686 281° West 462 532 43,000  Level Minneapolis Center
Sun 09:50:14 AM 44.8244 -91.9831 280° West 465 535 43,000  Level Minneapolis Center
Sun 09:51:16 AM 44.8500 -92.1956 280° West 463 533 43,000  Level Minneapolis Center
Sun 09:52:17 AM 44.8719 -92.3731 280° West 463 533 43,000  Level Minneapolis Center
Sun 09:53:19 AM 44.8914 -92.5508 279° West 463 533 43,000  Level Minneapolis Center
Sun 09:54:20 AM 44.9114 -92.7272 279° West 461 531 43,000  Level Minneapolis Center
Sun 09:55:22 AM 44.9328 -92.9008 280° West 456 525 43,000  Level Minneapolis Center
Sun 09:56:23 AM 44.9567 -93.1108 279° West 460 529 43,000  Level Minneapolis Center
Sun 09:57:25 AM 44.9761 -93.2861 279° West 462 532 43,000  Level Minneapolis Center
Sun 09:58:26 AM 44.9950 -93.4622 279° West 463 533 43,000  Level Minneapolis Center
Sun 09:59:28 AM 45.0136 -93.6403 278° West 463 533 43,000  Level Minneapolis Center
Sun 10:00:30 AM 45.0322 -93.8189 278° West 463 533 43,000  Level Minneapolis Center
Sun 10:01:31 AM 45.0539 -94.0333 278° West 463 533 43,000  Level Minneapolis Center
Sun 10:02:33 AM 45.0728 -94.2136 279° West 466 536 43,000  Level Minneapolis Center
Sun 10:03:35 AM 45.0908 -94.3928 278° West 465 535 43,000  Level Minneapolis Center
Sun 10:04:49 AM 45.1122 -94.6083 278° West 463 533 43,000  Level Minneapolis Center
Sun 10:05:50 AM 45.1317 -94.7978 278° West 468 539 43,000  Level Minneapolis Center
Sun 10:06:52 AM 45.1494 -94.9778 278° West 466 536 43,000  Level Minneapolis Center
Sun 10:07:54 AM 45.1647 -95.1592 277° West 467 537 43,000  Level Minneapolis Center
Sun 10:08:56 AM 45.1847 -95.3756 278° West 465 535 43,000  Level Minneapolis Center
Sun 10:10:09 AM 45.2017 -95.5556 278° West 465 535 43,000  Level Minneapolis Center
Sun 10:11:11 AM 45.2200 -95.7706 277° West 462 532 43,000  Level Minneapolis Center
Sun 10:12:13 AM 45.2364 -95.9500 277° West 462 532 43,000  Level Minneapolis Center
Sun 10:13:15 AM 45.2522 -96.1286 277° West 460 529 43,000  Level Minneapolis Center
Sun 10:14:17 AM 45.2664 -96.3083 276° West 461 531 43,000  Level Minneapolis Center
Sun 10:15:18 AM 45.2847 -96.5228 277° West 461 531 43,000  Level Minneapolis Center
Sun 10:16:20 AM 45.2972 -96.6983 276° West 453 521 43,000  Level Minneapolis Center
Sun 10:17:22 AM 45.3122 -96.8744 277° West 452 520 43,000  Level Minneapolis Center
Sun 10:18:24 AM 45.3258 -97.0511 276° West 452 520 43,000  Level Minneapolis Center
Sun 10:19:26 AM 45.3392 -97.2289 276° West 454 522 43,000  Level Minneapolis Center
Sun 10:20:28 AM 45.3517 -97.4058 276° West 453 521 43,000  Level Minneapolis Center
Sun 10:21:30 AM 45.3672 -97.6181 276° West 452 520 43,000  Level Minneapolis Center
Sun 10:22:44 AM 45.3800 -97.7931 276° West 448 516 43,000  Level Minneapolis Center
Sun 10:23:46 AM 45.3936 -98.0033 275° West 447 514 43,000  Level Minneapolis Center
Sun 10:24:48 AM 45.4053 -98.1725 276° West 444 511 43,000  Level Minneapolis Center
Sun 10:25:49 AM 45.4181 -98.3478 276° West 446 513 43,000  Level Minneapolis Center
Sun 10:26:51 AM 45.4475 -98.5514 282° West 441 507 43,000  Level Minneapolis Center
Sun 10:27:54 AM 45.4756 -98.7208 283° West 440 506 43,000  Level Minneapolis Center
Sun 10:28:56 AM 45.5031 -98.8914 283° West 443 510 43,000  Level Minneapolis Center
Sun 10:29:58 AM 45.5289 -99.0625 282° West 443 510 43,000  Level Minneapolis Center
Sun 10:31:00 AM 45.5564 -99.2333 283° West 443 510 43,000  Level Minneapolis Center
Sun 10:32:02 AM 45.5828 -99.4064 282° West 447 514 43,000  Level Minneapolis Center
Sun 10:33:04 AM 45.6147 -99.6136 282° West 448 516 43,000  Level Minneapolis Center
Sun 10:34:06 AM 45.6406 -99.7883 282° West 451 519 43,000  Level Minneapolis Center
Sun 10:35:08 AM 45.6667 -99.9622 282° West 451 519 43,000  Level Minneapolis Center
Sun 10:36:10 AM 45.6911 -100.1331 282° West 446 513 43,000  Level Minneapolis Center
Sun 10:37:24 AM 45.7172 -100.3064 282° West 447 514 43,000  Level Minneapolis Center
Sun 10:38:26 AM 45.7511 -100.5511 281° West 450 518 43,000  Level Minneapolis Center
Sun 10:39:28 AM 45.7753 -100.7247 281° West 448 516 43,000  Level Minneapolis Center
Sun 10:40:30 AM 45.8000 -100.8989 282° West 448 516 43,000  Level Minneapolis Center
Sun 10:41:32 AM 45.8244 -101.0731 281° West 448 516 43,000  Level Minneapolis Center
Sun 10:42:35 AM 45.8486 -101.2497 281° West 451 519 43,000  Level Minneapolis Center
Sun 10:43:37 AM 45.8728 -101.4250 281° West 450 518 43,000  Level Minneapolis Center
Sun 10:44:39 AM 45.9017 -101.6364 281° West 451 519 43,000  Level Minneapolis Center
Sun 10:45:41 AM 45.9233 -101.8142 280° West 452 520 43,000  Level Minneapolis Center
Sun 10:46:43 AM 45.9478 -101.9886 281° West 449 517 43,000  Level Minneapolis Center
Sun 10:47:57 AM 45.9703 -102.1650 280° West 449 517 43,000  Level Minneapolis Center
Sun 10:48:59 AM 45.9964 -102.3739 280° West 446 513 43,000  Level Minneapolis Center
Sun 10:50:01 AM 46.0172 -102.5475 280° West 443 510 43,000  Level Minneapolis Center
Sun 10:51:03 AM 46.0408 -102.7342 280° West 441 507 43,000  Level Minneapolis Center
Sun 10:52:05 AM 46.0617 -102.9069 280° West 440 506 43,000  Level Minneapolis Center
Sun 10:53:07 AM 46.0822 -103.0811 280° West 441 507 43,000  Level Minneapolis Center
Sun 10:54:06 AM 46.1011 -103.2522 279° West 439 505 43,000  Level Salt Lake Center
Sun 10:55:08 AM 46.1200 -103.4208 279° West 435 501 43,000  Level Salt Lake Center
Sun 10:56:13 AM 46.1444 -103.6208 280° West 424 488 43,000  Level Minneapolis Center
Sun 10:57:15 AM 46.1628 -103.7878 279° West 421 484 43,000  Level Minneapolis Center
Sun 10:58:14 AM 46.1797 -103.9564 278° West 425 489 43,000  Level Salt Lake Center
Sun 10:59:16 AM 46.1975 -104.1242 279° West 425 489 43,000  Level Salt Lake Center
Sun 11:00:17 AM 46.2161 -104.2928 279° West 425 489 43,000  Level Salt Lake Center
Sun 11:01:19 AM 46.2339 -104.4628 279° West 425 489 43,000  Level Salt Lake Center
Sun 11:02:21 AM 46.2553 -104.6678 279° West 427 491 43,000  Level Salt Lake Center
Sun 11:03:23 AM 46.2722 -104.8356 278° West 427 491 43,000  Level Salt Lake Center
Sun 11:04:25 AM 46.2894 -105.0075 278° West 429 494 43,000  Level Salt Lake Center
Sun 11:05:27 AM 46.3067 -105.1792 278° West 429 494 43,000  Level Salt Lake Center
Sun 11:06:30 AM 46.3236 -105.3511 278° West 431 496 43,000  Level Salt Lake Center
Sun 11:07:32 AM 46.3256 -105.5256 271° West 436 502 43,000  Level Salt Lake Center
Sun 11:08:34 AM 46.3150 -105.6972 265° West 433 498 43,000  Level Salt Lake Center
Sun 11:09:36 AM 46.3050 -105.9058 266° West 433 498 43,000  Level Salt Lake Center
Sun 11:10:38 AM 46.2953 -106.0789 265° West 433 498 43,000  Level Salt Lake Center
Sun 11:11:40 AM 46.2853 -106.2469 265° West 429 494 43,000  Level Salt Lake Center
Sun 11:12:42 AM 46.2753 -106.4161 265° West 426 490 43,000  Level Salt Lake Center
Sun 11:13:44 AM 46.2642 -106.5850 265° West 425 489 43,000  Level Salt Lake Center
Sun 11:14:46 AM 46.2528 -106.7519 264° West 423 487 43,000  Level Salt Lake Center
Sun 11:15:48 AM 46.2400 -106.9525 265° West 421 484 43,000  Level Salt Lake Center
Sun 11:16:50 AM 46.2306 -107.1242 266° West 423 487 43,000  Level Salt Lake Center
Sun 11:17:52 AM 46.2189 -107.2944 264° West 415 478 43,000  Level Salt Lake Center
Sun 11:18:54 AM 46.2069 -107.4731 265° West 421 484 43,000  Level Salt Lake Center
Sun 11:19:56 AM 46.1947 -107.6383 264° West 420 483 43,000  Level Salt Lake Center
Sun 11:20:58 AM 46.1819 -107.8178 264° West 419 482 43,000  Level Salt Lake Center
Sun 11:22:00 AM 46.1700 -107.9842 264° West 421 484 43,000  Level Salt Lake Center
Sun 11:23:02 AM 46.1561 -108.1639 264° West 422 486 43,000  Level Salt Lake Center
Sun 11:24:04 AM 46.1428 -108.3425 264° West 421 484 43,000  Level Salt Lake Center
Sun 11:25:06 AM 46.1300 -108.5083 264° West 422 486 43,000  Level Salt Lake Center
Sun 11:26:08 AM 46.1161 -108.6892 264° West 426 490 43,000  Level Salt Lake Center
Sun 11:27:10 AM 46.1019 -108.8553 263° West 425 489 43,000  Level Salt Lake Center
Sun 11:28:12 AM 46.0861 -109.0358 263° West 425 489 43,000  Level Salt Lake Center
Sun 11:29:14 AM 46.0717 -109.2025 263° West 426 490 43,000  Level Salt Lake Center
Sun 11:30:16 AM 46.0558 -109.3819 263° West 423 487 43,000  Level Salt Lake Center
Sun 11:31:18 AM 46.0400 -109.5633 263° West 426 490 43,000  Level Salt Lake Center
Sun 11:32:20 AM 46.0250 -109.7292 263° West 426 490 43,000  Level Salt Lake Center
Sun 11:33:22 AM 46.0067 -109.9056 262° West 422 486 43,000  Level Salt Lake Center
Sun 11:34:24 AM 45.9911 -110.0672 262° West 425 489 43,000  Level Salt Lake Center
Sun 11:35:26 AM 45.9736 -110.2572 263° West 427 491 43,000  Level Salt Lake Center
Sun 11:36:28 AM 45.9578 -110.4186 262° West 428 493 43,000  Level Salt Lake Center
Sun 11:37:30 AM 45.9403 -110.5978 262° West 426 490 43,000  Level Salt Lake Center
Sun 11:38:32 AM 45.9244 -110.7642 262° West 421 484 43,000  Level Salt Lake Center
Sun 11:39:34 AM 45.9078 -110.9300 262° West 422 486 43,000  Level Salt Lake Center
Sun 11:40:36 AM 45.8928 -111.0942 263° West 423 487 43,000  Level Salt Lake Center
Sun 11:41:38 AM 45.8728 -111.2947 262° West 446 513 43,000  Level Salt Lake Center
Sun 11:42:40 AM 45.8531 -111.4581 260° West 425 489 43,000  Level Salt Lake Center
Sun 11:43:42 AM 45.8342 -111.6214 261° West 419 482 43,000  Level Salt Lake Center
Sun 11:44:44 AM 45.8161 -111.7858 261° West 420 483 43,000  Level Salt Lake Center
Sun 11:45:46 AM 45.7978 -111.9497 261° West 418 481 43,000  Level Salt Lake Center
Sun 11:46:48 AM 45.7758 -112.1439 261° West 415 478 43,000  Level Salt Lake Center
Sun 11:47:50 AM 45.7567 -112.3078 261° West 416 479 43,000  Level Salt Lake Center
Sun 11:48:52 AM 45.7378 -112.4711 261° West 417 480 43,000  Level Salt Lake Center
Sun 11:49:54 AM 45.7186 -112.6369 261° West 422 486 43,000  Level Salt Lake Center
Sun 11:50:56 AM 45.6983 -112.7997 260° West 418 481 43,000  Level Salt Lake Center
Sun 11:51:58 AM 45.6789 -112.9639 260° West 419 482 43,000  Level Salt Lake Center
Sun 11:53:00 AM 45.6592 -113.1264 260° West 417 480 43,000  Level Salt Lake Center
Sun 11:54:02 AM 45.6350 -113.3233 260° West 420 483 43,000  Level Salt Lake Center
Sun 11:55:04 AM 45.6142 -113.4872 260° West 419 482 43,000  Level Salt Lake Center
Sun 11:56:06 AM 45.5964 -113.6436 261° West 420 483 43,000  Level Salt Lake Center
Sun 11:58:10 AM 45.5517 -113.9856 260° West 423 487 43,000  Level Salt Lake Center
Sun 11:59:12 AM 45.5281 -114.1664 260° West 418 481 43,000  Level Salt Lake Center
Sun 12:00:26 PM 45.4992 -114.3758 259° West 422 486 43,000  Level Salt Lake Center
Sun 12:01:28 PM 45.4792 -114.5308 260° West 418 481 43,000  Level Salt Lake Center
Sun 12:02:30 PM 45.4547 -114.7103 259° West 416 479 43,000  Level Salt Lake Center
Sun 12:03:32 PM 45.4333 -114.8667 259° West 419 482 43,000  Level Salt Lake Center
Sun 12:04:35 PM 45.4119 -115.0211 259° West 418 481 43,000  Level Salt Lake Center
Sun 12:05:24 PM 45.3894 -115.1769 258° West 418 481 43,000  Level Seattle Center
Sun 12:06:39 PM 45.3647 -115.3550 259° West 416 479 43,000  Level Salt Lake Center
Sun 12:07:41 PM 45.3389 -115.5356 259° West 417 480 43,000  Level Salt Lake Center
Sun 12:08:27 PM 45.3200 -115.6644 258° West 417 480 43,000  Level Seattle Center
Sun 12:09:28 PM 45.2972 -115.8172 258° West 416 479 43,000  Level Seattle Center
Sun 12:10:47 PM 45.2672 -116.0206 258° West 415 478 43,000  Level Salt Lake Center
Sun 12:11:49 PM 45.2400 -116.1992 258° West 416 479 43,000  Level Salt Lake Center
Sun 12:12:51 PM 45.2169 -116.3525 258° West 417 480 43,000  Level Salt Lake Center
Sun 12:13:33 PM 45.1964 -116.4825 257° West 421 484 43,000  Level Seattle Center
Sun 12:14:34 PM 45.1725 -116.6364 258° West 421 484 43,000  Level Seattle Center
Sun 12:15:35 PM 45.1489 -116.7892 258° West 418 481 43,000  Level Seattle Center
Sun 12:16:36 PM 45.1189 -116.9700 257° West 423 487 43,000  Level Seattle Center
Sun 12:18:01 PM 45.0828 -117.1994 258° West 420 483 43,000  Level Salt Lake Center
Sun 12:19:03 PM 45.0583 -117.3514 257° West 415 478 43,000  Level Salt Lake Center
Sun 12:20:05 PM 45.0292 -117.5294 257° West 418 481 43,000  Level Salt Lake Center
Sun 12:21:42 PM 44.9864 -117.7822 257° West 418 481 43,000  Level Seattle Center
Sun 12:22:43 PM 44.9617 -117.9336 257° West 415 478 43,000  Level Seattle Center
Sun 12:23:44 PM 44.9314 -118.1119 257° West 417 480 43,000  Level Seattle Center
Sun 12:24:45 PM 44.9056 -118.2692 257° West 414 476 43,000  Level Seattle Center
Sun 12:25:15 PM 44.8939 -118.3331 256° West 414 476 43,000  Level Salt Lake Center
Sun 12:25:47 PM 44.8769 -118.4264 256° West 415 478 43,000  Level Seattle Center
Sun 12:26:48 PM 44.8500 -118.5844 257° West 414 476 43,000  Level Seattle Center
Sun 12:27:49 PM 44.8222 -118.7411 256° West 413 475 43,000  Level Seattle Center
Sun 12:28:50 PM 44.7956 -118.8986 257° West 413 475 43,000  Level Seattle Center
Sun 12:29:51 PM 44.7686 -119.0542 256° West 411 473 43,000  Level Seattle Center
Sun 12:31:27 PM 44.7228 -119.3044 256° West 411 473 43,000  Level Salt Lake Center
Sun 12:32:29 PM 44.6944 -119.4611 256° West 412 474 43,000  Level Salt Lake Center
Sun 12:33:31 PM 44.6647 -119.6175 255° West 413 475 43,000  Level Salt Lake Center
Sun 12:34:33 PM 44.6339 -119.7733 255° West 411 473 43,000  Level Salt Lake Center
Sun 12:35:35 PM 44.5944 -119.9247 250° West 409 471 43,000  Level Salt Lake Center
Sun 12:36:37 PM 44.5492 -120.1078 251° West 411 473 43,000  Level Salt Lake Center
Sun 12:38:01 PM 44.4964 -120.3172 251° West 409 471 43,000  Level Seattle Center
Sun 12:39:02 PM 44.4611 -120.4656 252° West 413 475 43,000  Level Seattle Center
Sun 12:40:04 PM 44.4219 -120.6142 250° West 408 470 43,000  Level Seattle Center
Sun 12:42:06 PM 44.3442 -120.9158 250° West 407 468 43,000  Level Seattle Center
Sun 12:43:07 PM 44.3050 -121.0672 250° West 414 476 43,000  Level Seattle Center
Sun 12:44:09 PM 44.2678 -121.2167 251° West 411 473 43,000 -49 Level Seattle Center
Sun 12:45:10 PM 44.2267 -121.3650 249° West 409 471 42,900 -984 Descending Seattle Center
Sun 12:46:11 PM 44.1878 -121.5125 250° West 406 467 41,000 -1,918 Descending Seattle Center
Sun 12:47:12 PM 44.1486 -121.6586 250° West 404 465 39,000 -984 Descending Seattle Center
Sun 12:48:13 PM 44.1128 -121.7914 249° West 369 425 39,000 -652 Level Seattle Center
Sun 12:50:16 PM 44.0428 -122.0528 250° West 356 410 37,000 -1,402 Descending Seattle Center
Sun 12:51:17 PM 43.9992 -122.2078 249° West 360 414 34,700 -2,054 Descending Seattle Center
Sun 12:53:20 PM 43.9264 -122.4719 249° West 371 427 30,700 -1,957 Descending Seattle Center
Sun 12:54:21 PM 43.8875 -122.6081 248° West 378 435 28,700 -2,049 Descending Seattle Center
Sun 12:55:23 PM 43.8489 -122.7464 249° West 381 438 26,500 -2,341 Descending Seattle Center
Sun 12:56:24 PM 43.8106 -122.8839 249° West 382 440 23,900 -2,508 Descending Seattle Center
Sun 12:57:25 PM 43.7708 -123.0247 249° West 389 448 21,400 -2,459 Descending Seattle Center
Sun 12:58:26 PM 43.7331 -123.1581 249° West 378 435 18,900 -2,448 Descending Seattle Center
Sun 12:59:30 PM 43.7094 -123.2861 256° West 349 402 16,300 -2,256 Descending Seattle Center
Sun 01:00:31 PM 43.6958 -123.4150 262° West 341 392 14,200 -1,820 Descending Seattle Center
Sun 01:01:32 PM 43.6847 -123.5297 262° West 317 365 12,600 -1,659 Descending Seattle Center
Sun 01:02:34 PM 43.6697 -123.6606 261° West 294 338 10,800 -1,610 Descending Seattle Center
Sun 01:03:35 PM 43.6583 -123.7686 262° West 288 331 9,300 -1,525 Descending Seattle Center
Sun 01:04:36 PM 43.6469 -123.8672 261° West 267 307 7,700 -1,561 Descending Seattle Center
Sun 01:05:38 PM 43.6358 -123.9700 262° West 269 310 6,100 -1,512 Descending Seattle Center
Sun 01:06:39 PM 43.6392 -124.0758 273° West 264 304 4,600 -1,279 Descending Seattle Center
Sun 01:07:40 PM 43.6489 -124.1728 278° West 259 298 3,500 -885 Descending Seattle Center
Sun 01:08:41 PM 43.6403 -124.2606 262° West 246 283 2,800 -341 Descending Seattle Center
Sun 01:09:43 PM 43.6175 -124.3339 247° West 230 265 2,800  Level Seattle Center
Sun 01:10:44 PM 43.5914 -124.4022 242° Southwest 225 259 2,800  Level Seattle Center
Sun 01:12:00 PM 43.4673 -124.2917 235° Southwest  Level Estimated
Sun 01:19:00 PM 43.4167 -124.2333 79° East  Level FlightAware Approximate
Sun 01:20:00 PM 43.4169 -124.2470 79° East  Level Estimated
Sun 01:21:00 PM 43.4169 -124.2470 79° East  Level Estimated
Sun 01:22:00 PM 43.4169 -124.2470 79° East  Level Estimated
Sun 01:23:00 PM 43.4169 -124.2470 79° East  Level Estimated
Sun 01:24:00 PM 43.4169 -124.2470 79° East  Level Estimated

Login

Don't have an account? Register now (free) for customized features, flight alerts, and more!